createdAt,value
2018-07-04T00:00:12.926Z,0.00
2018-07-04T00:01:12.806Z,0.00
2018-07-04T00:02:13.510Z,0.00
2018-07-04T00:03:12.681Z,0.00
2018-07-04T00:04:12.588Z,0.00
2018-07-04T00:05:13.474Z,0.00
2018-07-04T00:06:12.461Z,0.00
2018-07-04T00:07:13.083Z,0.00
2018-07-04T00:08:12.328Z,0.00
2018-07-04T00:09:13.001Z,0.00
2018-07-04T00:10:12.205Z,0.00
2018-07-04T00:11:12.168Z,0.00
2018-07-04T00:12:12.041Z,0.00
2018-07-04T00:13:12.520Z,0.00
2018-07-04T00:14:11.899Z,0.00
2018-07-04T00:15:11.846Z,0.00
2018-07-04T00:16:12.491Z,0.00
2018-07-04T00:17:12.560Z,0.00
2018-07-04T00:18:11.659Z,0.00
2018-07-04T00:19:11.595Z,0.00
2018-07-04T00:20:11.508Z,0.00
2018-07-04T00:21:11.423Z,0.00
2018-07-04T00:22:12.045Z,0.00
2018-07-04T00:23:12.056Z,0.00
2018-07-04T00:24:11.990Z,0.00
2018-07-04T00:25:11.168Z,0.00
2018-07-04T00:26:11.107Z,0.00
2018-07-04T00:27:11.981Z,0.00
2018-07-04T00:28:10.961Z,0.00
2018-07-04T00:29:10.870Z,0.00
2018-07-04T00:30:10.818Z,0.00
2018-07-04T00:31:10.765Z,0.00
2018-07-04T00:32:11.508Z,0.00
2018-07-04T00:33:10.590Z,0.00
2018-07-04T00:34:10.534Z,0.00
2018-07-04T00:35:12.984Z,0.00
2018-07-04T00:36:10.419Z,0.00
2018-07-04T00:37:10.321Z,0.00
2018-07-04T00:38:10.270Z,0.00
2018-07-04T00:39:10.264Z,0.00
2018-07-04T00:40:12.005Z,0.00
2018-07-04T00:41:10.039Z,0.00
2018-07-04T00:42:10.027Z,0.00
2018-07-04T00:43:10.553Z,0.00
2018-07-04T00:44:09.838Z,0.00
2018-07-04T00:45:09.850Z,0.00
2018-07-04T00:46:09.668Z,0.00
2018-07-04T00:47:09.677Z,0.00
2018-07-04T00:48:09.568Z,0.00
2018-07-04T00:49:09.511Z,0.00
2018-07-04T00:50:09.420Z,0.00
2018-07-04T00:51:09.353Z,0.00
2018-07-04T00:52:10.537Z,0.00
2018-07-04T00:53:10.003Z,0.00
2018-07-04T00:54:09.152Z,0.00
2018-07-04T00:55:10.061Z,0.00
2018-07-04T00:56:09.579Z,0.00
2018-07-04T00:57:08.952Z,0.00
2018-07-04T00:58:08.863Z,0.00
2018-07-04T00:59:09.128Z,0.00
2018-07-04T01:00:08.735Z,0.00
2018-07-04T01:01:10.490Z,0.00
2018-07-04T01:02:08.595Z,0.00
2018-07-04T01:03:08.607Z,0.00
2018-07-04T01:04:08.497Z,0.00
2018-07-04T01:05:08.398Z,0.00
2018-07-04T01:06:08.330Z,0.00
2018-07-04T01:07:08.261Z,0.00
2018-07-04T01:08:08.175Z,0.00
2018-07-04T01:09:08.111Z,0.00
2018-07-04T01:10:09.015Z,0.00
2018-07-04T01:11:07.961Z,0.00
2018-07-04T01:12:07.911Z,0.00
2018-07-04T01:13:07.834Z,0.00
2018-07-04T01:14:07.801Z,0.00
2018-07-04T01:15:07.664Z,0.00
2018-07-04T01:16:08.524Z,0.00
2018-07-04T01:17:07.663Z,0.00
2018-07-04T01:18:07.475Z,0.00
2018-07-04T01:19:07.476Z,0.00
2018-07-04T01:20:08.060Z,0.00
2018-07-04T01:21:07.993Z,0.00
2018-07-04T01:22:07.244Z,0.00
2018-07-04T01:23:07.139Z,0.00
2018-07-04T01:24:07.138Z,0.00
2018-07-04T01:25:06.981Z,0.00
2018-07-04T01:26:07.584Z,0.00
2018-07-04T01:27:07.570Z,0.00
2018-07-04T01:28:07.601Z,0.00
2018-07-04T01:29:06.767Z,0.00
2018-07-04T01:30:06.642Z,0.00
2018-07-04T01:31:06.607Z,0.00
2018-07-04T01:32:06.524Z,0.00
2018-07-04T01:33:06.450Z,0.00
2018-07-04T01:34:06.370Z,0.00
2018-07-04T01:35:06.304Z,0.00
2018-07-04T01:36:06.245Z,0.00
2018-07-04T01:37:06.175Z,0.00
2018-07-04T01:38:06.158Z,0.00
2018-07-04T01:39:06.114Z,0.00
2018-07-04T01:40:05.978Z,0.00
2018-07-04T01:41:06.574Z,0.00
2018-07-04T01:42:05.858Z,0.00
2018-07-04T01:43:05.739Z,0.00
2018-07-04T01:44:06.529Z,0.00
2018-07-04T01:45:05.621Z,0.00
2018-07-04T01:46:05.555Z,0.00
2018-07-04T01:47:05.464Z,0.00
2018-07-04T01:48:06.030Z,0.00
2018-07-04T01:49:05.292Z,0.00
2018-07-04T01:50:05.288Z,0.00
2018-07-04T01:51:05.173Z,0.00
2018-07-04T01:52:05.117Z,0.00
2018-07-04T01:53:05.110Z,0.00
2018-07-04T01:54:05.033Z,0.00
2018-07-04T01:55:04.901Z,0.00
2018-07-04T01:56:04.813Z,0.00
2018-07-04T01:57:04.774Z,0.00
2018-07-04T01:58:04.686Z,0.00
2018-07-04T01:59:04.640Z,0.00
2018-07-04T02:00:04.573Z,0.00
2018-07-04T02:01:04.462Z,0.00
2018-07-04T02:02:04.395Z,0.00
2018-07-04T02:03:04.378Z,0.00
2018-07-04T02:04:04.267Z,0.00
2018-07-04T02:05:04.170Z,0.00
2018-07-04T02:06:04.126Z,0.00
2018-07-04T02:07:04.109Z,0.00
2018-07-04T02:08:04.561Z,0.00
2018-07-04T02:09:04.515Z,0.00
2018-07-04T02:10:03.873Z,0.00
2018-07-04T02:11:03.804Z,0.00
2018-07-04T02:12:03.711Z,0.00
2018-07-04T02:13:03.707Z,0.00
2018-07-04T02:14:03.637Z,0.00
2018-07-04T02:15:03.519Z,0.00
2018-07-04T02:16:03.441Z,0.00
2018-07-04T02:17:03.371Z,0.00
2018-07-04T02:18:03.300Z,0.00
2018-07-04T02:19:04.059Z,0.00
2018-07-04T02:20:04.003Z,0.00
2018-07-04T02:21:03.116Z,0.00
2018-07-04T02:22:03.567Z,0.00
2018-07-04T02:23:02.953Z,0.00
2018-07-04T02:24:02.910Z,0.00
2018-07-04T02:25:03.560Z,0.00
2018-07-04T02:26:02.774Z,0.00
2018-07-04T02:27:02.699Z,0.00
2018-07-04T02:28:03.525Z,0.00
2018-07-04T02:29:02.552Z,0.00
2018-07-04T02:30:02.494Z,0.00
2018-07-04T02:31:02.425Z,0.00
2018-07-04T02:32:02.329Z,0.00
2018-07-04T02:33:02.294Z,0.00
2018-07-04T02:34:02.212Z,0.00
2018-07-04T02:35:02.124Z,0.00
2018-07-04T02:36:02.071Z,0.00
2018-07-04T02:37:01.983Z,0.00
2018-07-04T02:38:01.978Z,0.00
2018-07-04T02:39:01.921Z,0.00
2018-07-04T02:40:01.772Z,0.00
2018-07-04T02:41:01.679Z,0.00
2018-07-04T02:42:01.658Z,0.00
2018-07-04T02:43:04.509Z,0.00
2018-07-04T02:44:01.492Z,0.00
2018-07-04T02:45:03.087Z,0.00
2018-07-04T02:46:01.345Z,0.00
2018-07-04T02:47:01.259Z,0.00
2018-07-04T02:48:01.242Z,0.00
2018-07-04T02:49:01.181Z,0.00
2018-07-04T02:50:01.108Z,0.00
2018-07-04T02:51:01.071Z,4.00
2018-07-04T02:52:01.565Z,4.00
2018-07-04T02:53:00.917Z,4.00
2018-07-04T02:54:00.809Z,0.00
2018-07-04T02:55:01.526Z,0.00
2018-07-04T02:56:00.673Z,4.00
2018-07-04T02:57:00.663Z,4.00
2018-07-04T02:58:02.043Z,4.00
2018-07-04T02:59:00.443Z,4.00
2018-07-04T03:00:01.066Z,8.00
2018-07-04T03:01:01.029Z,4.00
2018-07-04T03:02:01.120Z,8.00
2018-07-04T03:03:01.084Z,4.00
2018-07-04T03:04:00.097Z,8.00
2018-07-04T03:05:00.048Z,8.00
2018-07-04T03:05:59.963Z,8.00
2018-07-04T03:07:00.536Z,8.00
2018-07-04T03:07:59.809Z,12.00
2018-07-04T03:08:59.736Z,12.00
2018-07-04T03:09:59.677Z,12.00
2018-07-04T03:10:59.631Z,12.00
2018-07-04T03:11:59.545Z,16.00
2018-07-04T03:12:59.475Z,16.00
2018-07-04T03:13:59.400Z,16.00
2018-07-04T03:14:59.390Z,16.00
2018-07-04T03:15:59.242Z,20.00
2018-07-04T03:17:00.041Z,24.00
2018-07-04T03:17:59.187Z,28.00
2018-07-04T03:18:59.103Z,32.00
2018-07-04T03:19:59.044Z,32.00
2018-07-04T03:20:58.924Z,32.00
2018-07-04T03:21:58.864Z,36.00
2018-07-04T03:22:59.543Z,40.00
2018-07-04T03:23:59.597Z,40.00
2018-07-04T03:25:00.536Z,44.00
2018-07-04T03:25:58.586Z,48.00
2018-07-04T03:26:58.502Z,52.00
2018-07-04T03:27:58.460Z,56.00
2018-07-04T03:28:59.156Z,60.00
2018-07-04T03:29:58.308Z,68.00
2018-07-04T03:30:58.239Z,72.00
2018-07-04T03:31:58.192Z,76.00
2018-07-04T03:32:58.100Z,80.00
2018-07-04T03:33:57.998Z,88.00
2018-07-04T03:34:57.987Z,96.00
2018-07-04T03:35:57.898Z,104.00
2018-07-04T03:36:57.792Z,112.00
2018-07-04T03:37:57.723Z,124.00
2018-07-04T03:38:58.556Z,136.00
2018-07-04T03:39:58.527Z,148.00
2018-07-04T03:40:57.495Z,160.00
2018-07-04T03:41:58.082Z,172.00
2018-07-04T03:42:57.374Z,188.00
2018-07-04T03:43:57.376Z,200.00
2018-07-04T03:44:58.025Z,216.00
2018-07-04T03:45:58.079Z,228.00
2018-07-04T03:46:57.136Z,240.00
2018-07-04T03:47:57.063Z,252.00
2018-07-04T03:48:56.968Z,256.00
2018-07-04T03:49:56.956Z,272.00
2018-07-04T03:50:56.833Z,280.00
2018-07-04T03:51:57.573Z,288.00
2018-07-04T03:52:56.697Z,292.00
2018-07-04T03:53:56.590Z,300.00
2018-07-04T03:54:56.579Z,308.00
2018-07-04T03:55:56.506Z,316.00
2018-07-04T03:56:57.066Z,320.00
2018-07-04T03:57:57.073Z,324.00
2018-07-04T03:58:58.028Z,328.00
2018-07-04T03:59:56.231Z,336.00
2018-07-04T04:00:58.085Z,344.00
2018-07-04T04:01:56.104Z,348.00
2018-07-04T04:02:56.614Z,356.00
2018-07-04T04:03:55.938Z,364.00
2018-07-04T04:04:55.836Z,372.00
2018-07-04T04:05:56.594Z,384.00
2018-07-04T04:06:55.702Z,392.00
2018-07-04T04:07:55.658Z,400.00
2018-07-04T04:08:55.569Z,416.00
2018-07-04T04:09:56.032Z,432.00
2018-07-04T04:10:55.450Z,444.00
2018-07-04T04:11:55.352Z,456.00
2018-07-04T04:12:55.284Z,472.00
2018-07-04T04:13:56.060Z,488.00
2018-07-04T04:14:55.161Z,508.00
2018-07-04T04:15:55.066Z,524.00
2018-07-04T04:16:55.060Z,544.00
2018-07-04T04:17:54.964Z,568.00
2018-07-04T04:18:55.218Z,588.00
2018-07-04T04:19:54.942Z,636.00
2018-07-04T04:20:54.726Z,688.00
2018-07-04T04:21:54.675Z,736.00
2018-07-04T04:22:54.640Z,792.00
2018-07-04T04:23:54.637Z,864.00
2018-07-04T04:24:54.492Z,912.00
2018-07-04T04:25:54.397Z,948.00
2018-07-04T04:26:54.336Z,976.00
2018-07-04T04:27:54.241Z,992.00
2018-07-04T04:28:54.177Z,1012.00
2018-07-04T04:29:54.174Z,1032.00
2018-07-04T04:30:54.086Z,1056.00
2018-07-04T04:31:54.562Z,1068.00
2018-07-04T04:32:53.974Z,1064.00
2018-07-04T04:33:53.908Z,1064.00
2018-07-04T04:34:53.769Z,1076.00
2018-07-04T04:35:53.752Z,1084.00
2018-07-04T04:36:53.850Z,1112.00
2018-07-04T04:37:53.593Z,1144.00
2018-07-04T04:38:53.496Z,1156.00
2018-07-04T04:39:53.486Z,1168.00
2018-07-04T04:40:53.322Z,1184.00
2018-07-04T04:41:54.168Z,1224.00
2018-07-04T04:42:53.172Z,1268.00
2018-07-04T04:43:53.139Z,1300.00
2018-07-04T04:44:53.069Z,1312.00
2018-07-04T04:45:54.538Z,1312.00
2018-07-04T04:46:52.910Z,1304.00
2018-07-04T04:47:52.854Z,1292.00
2018-07-04T04:48:53.659Z,1284.00
2018-07-04T04:49:52.724Z,1292.00
2018-07-04T04:50:52.654Z,1296.00
2018-07-04T04:51:52.654Z,1284.00
2018-07-04T04:52:52.579Z,1276.00
2018-07-04T04:53:52.505Z,1268.00
2018-07-04T04:54:52.492Z,1264.00
2018-07-04T04:55:52.350Z,1252.00
2018-07-04T04:56:52.298Z,1256.00
2018-07-04T04:57:52.134Z,1276.00
2018-07-04T04:58:52.134Z,1312.00
2018-07-04T04:59:52.007Z,1360.00
2018-07-04T05:00:51.976Z,1416.00
2018-07-04T05:01:51.908Z,1468.00
2018-07-04T05:02:51.820Z,1524.00
2018-07-04T05:03:51.763Z,1596.00
2018-07-04T05:04:51.731Z,1676.00
2018-07-04T05:05:51.587Z,1732.00
2018-07-04T05:06:51.563Z,1784.00
2018-07-04T05:07:51.483Z,1836.00
2018-07-04T05:08:51.455Z,1888.00
2018-07-04T05:09:51.338Z,1956.00
2018-07-04T05:10:51.267Z,2012.00
2018-07-04T05:11:51.221Z,2080.00
2018-07-04T05:12:51.132Z,2160.00
2018-07-04T05:13:51.082Z,2208.00
2018-07-04T05:14:50.998Z,2268.00
2018-07-04T05:15:50.908Z,2336.00
2018-07-04T05:16:50.896Z,2416.00
2018-07-04T05:17:50.803Z,2400.00
2018-07-04T05:18:50.751Z,2396.00
2018-07-04T05:19:52.565Z,2372.00
2018-07-04T05:20:50.613Z,2432.00
2018-07-04T05:21:50.538Z,2412.00
2018-07-04T05:22:51.171Z,2388.00
2018-07-04T05:23:50.351Z,2424.00
2018-07-04T05:24:50.336Z,2488.00
2018-07-04T05:25:51.075Z,2516.00
2018-07-04T05:26:50.218Z,2604.00
2018-07-04T05:27:50.124Z,2636.00
2018-07-04T05:28:50.021Z,2612.00
2018-07-04T05:29:49.958Z,2504.00
2018-07-04T05:30:49.885Z,2324.00
2018-07-04T05:31:49.843Z,2112.00
2018-07-04T05:32:49.719Z,1956.00
2018-07-04T05:33:49.632Z,1896.00
2018-07-04T05:34:49.595Z,1892.00
2018-07-04T05:35:49.535Z,1912.00
2018-07-04T05:36:49.432Z,1928.00
2018-07-04T05:37:49.368Z,1944.00
2018-07-04T05:38:49.321Z,1936.00
2018-07-04T05:39:49.255Z,1936.00
2018-07-04T05:40:49.203Z,1928.00
2018-07-04T05:41:49.131Z,1928.00
2018-07-04T05:42:49.049Z,1940.00
2018-07-04T05:43:48.973Z,1960.00
2018-07-04T05:44:48.928Z,2000.00
2018-07-04T05:45:48.835Z,2040.00
2018-07-04T05:46:48.773Z,2076.00
2018-07-04T05:47:48.681Z,2108.00
2018-07-04T05:48:48.644Z,2160.00
2018-07-04T05:49:49.407Z,2160.00
2018-07-04T05:50:48.512Z,2168.00
2018-07-04T05:51:48.400Z,2176.00
2018-07-04T05:52:49.077Z,2216.00
2018-07-04T05:53:48.274Z,2284.00
2018-07-04T05:54:48.216Z,2376.00
2018-07-04T05:55:48.133Z,2484.00
2018-07-04T05:56:48.119Z,2608.00
2018-07-04T05:57:48.060Z,2732.00
2018-07-04T05:58:47.943Z,2936.00
2018-07-04T05:59:47.904Z,3152.00
2018-07-04T06:00:47.852Z,3416.00
2018-07-04T06:01:47.794Z,3648.00
2018-07-04T06:02:47.847Z,3744.00
2018-07-04T06:03:47.608Z,3784.00
2018-07-04T06:04:47.526Z,3880.00
2018-07-04T06:05:47.465Z,4000.00
2018-07-04T06:06:51.059Z,4128.00
2018-07-04T06:07:47.344Z,4148.00
2018-07-04T06:08:47.279Z,4016.00
2018-07-04T06:09:47.222Z,3820.00
2018-07-04T06:10:47.116Z,3484.00
2018-07-04T06:11:47.063Z,3284.00
2018-07-04T06:12:47.584Z,3188.00
2018-07-04T06:13:46.974Z,3012.00
2018-07-04T06:14:46.881Z,2844.00
2018-07-04T06:15:46.789Z,2668.00
2018-07-04T06:16:47.641Z,2572.00
2018-07-04T06:17:46.766Z,2416.00
2018-07-04T06:18:46.594Z,2260.00
2018-07-04T06:19:46.497Z,2132.00
2018-07-04T06:20:46.468Z,2084.00
2018-07-04T06:21:46.387Z,2144.00
2018-07-04T06:22:46.279Z,2260.00
2018-07-04T06:23:46.319Z,2380.00
2018-07-04T06:24:46.227Z,2396.00
2018-07-04T06:25:46.114Z,2516.00
2018-07-04T06:26:46.043Z,2576.00
2018-07-04T06:27:46.670Z,2624.00
2018-07-04T06:28:45.887Z,2784.00
2018-07-04T06:29:45.839Z,2936.00
2018-07-04T06:30:46.627Z,3092.00
2018-07-04T06:31:46.677Z,3260.00
2018-07-04T06:32:45.647Z,3540.00
2018-07-04T06:33:45.551Z,3976.00
2018-07-04T06:34:46.102Z,4516.00
2018-07-04T06:35:45.480Z,4884.00
2018-07-04T06:36:45.350Z,5100.00
2018-07-04T06:37:45.292Z,5208.00
2018-07-04T06:38:45.184Z,5204.00
2018-07-04T06:39:45.148Z,5152.00
2018-07-04T06:40:45.130Z,5128.00
2018-07-04T06:41:45.163Z,5080.00
2018-07-04T06:42:44.963Z,4932.00
2018-07-04T06:43:44.884Z,4800.00
2018-07-04T06:44:44.821Z,4828.00
2018-07-04T06:45:44.775Z,4708.00
2018-07-04T06:46:44.715Z,4492.00
2018-07-04T06:47:44.594Z,4140.00
2018-07-04T06:48:44.596Z,4100.00
2018-07-04T06:49:44.496Z,4008.00
2018-07-04T06:50:44.463Z,3960.00
2018-07-04T06:51:45.130Z,3896.00
2018-07-04T06:52:44.280Z,3904.00
2018-07-04T06:53:44.218Z,3660.00
2018-07-04T06:54:44.153Z,3428.00
2018-07-04T06:55:44.053Z,3240.00
2018-07-04T06:56:44.021Z,3236.00
2018-07-04T06:57:43.945Z,3324.00
2018-07-04T06:58:43.854Z,3296.00
2018-07-04T06:59:43.800Z,3228.00
2018-07-04T07:00:43.797Z,3396.00
2018-07-04T07:01:43.684Z,3420.00
2018-07-04T07:02:43.626Z,3368.00
2018-07-04T07:03:43.592Z,3400.00
2018-07-04T07:04:43.466Z,3352.00
2018-07-04T07:05:43.388Z,3336.00
2018-07-04T07:06:43.422Z,3340.00
2018-07-04T07:07:43.511Z,3364.00
2018-07-04T07:08:43.174Z,3376.00
2018-07-04T07:09:43.134Z,3408.00
2018-07-04T07:10:43.089Z,3416.00
2018-07-04T07:11:43.010Z,3380.00
2018-07-04T07:12:42.890Z,3364.00
2018-07-04T07:13:42.826Z,3360.00
2018-07-04T07:14:42.759Z,3388.00
2018-07-04T07:15:44.080Z,3368.00
2018-07-04T07:16:42.647Z,3388.00
2018-07-04T07:17:42.585Z,3356.00
2018-07-04T07:18:42.512Z,3420.00
2018-07-04T07:19:42.417Z,3460.00
2018-07-04T07:20:42.351Z,3508.00
2018-07-04T07:21:42.285Z,3520.00
2018-07-04T07:22:42.217Z,3500.00
2018-07-04T07:23:42.155Z,3548.00
2018-07-04T07:24:42.085Z,3596.00
2018-07-04T07:25:42.031Z,3656.00
2018-07-04T07:26:42.002Z,3712.00
2018-07-04T07:27:41.887Z,3804.00
2018-07-04T07:28:41.845Z,3880.00
2018-07-04T07:29:41.746Z,3864.00
2018-07-04T07:30:41.714Z,3880.00
2018-07-04T07:31:41.615Z,3952.00
2018-07-04T07:32:41.556Z,3928.00
2018-07-04T07:33:41.481Z,3924.00
2018-07-04T07:34:41.419Z,3896.00
2018-07-04T07:35:41.348Z,3860.00
2018-07-04T07:36:41.305Z,3828.00
2018-07-04T07:37:41.225Z,3820.00
2018-07-04T07:38:41.154Z,3888.00
2018-07-04T07:39:41.087Z,3944.00
2018-07-04T07:40:41.019Z,4028.00
2018-07-04T07:41:40.955Z,4088.00
2018-07-04T07:42:41.091Z,4104.00
2018-07-04T07:43:40.826Z,4108.00
2018-07-04T07:44:40.757Z,4164.00
2018-07-04T07:45:40.688Z,4248.00
2018-07-04T07:46:40.620Z,4384.00
2018-07-04T07:47:40.557Z,4416.00
2018-07-04T07:48:40.503Z,4316.00
2018-07-04T07:49:40.433Z,4232.00
2018-07-04T07:50:40.353Z,4228.00
2018-07-04T07:51:40.300Z,4216.00
2018-07-04T07:52:40.228Z,4104.00
2018-07-04T07:53:40.151Z,4128.00
2018-07-04T07:54:40.094Z,4300.00
2018-07-04T07:55:40.036Z,4480.00
2018-07-04T07:56:39.963Z,4564.00
2018-07-04T07:57:39.922Z,4528.00
2018-07-04T07:58:39.829Z,4472.00
2018-07-04T07:59:39.762Z,4416.00
2018-07-04T08:00:39.698Z,4468.00
2018-07-04T08:01:39.632Z,4560.00
2018-07-04T08:02:39.567Z,4724.00
2018-07-04T08:03:39.499Z,4908.00
2018-07-04T08:04:39.436Z,5068.00
2018-07-04T08:05:39.374Z,5316.00
2018-07-04T08:06:39.315Z,5836.00
2018-07-04T08:07:39.239Z,6412.00
2018-07-04T08:08:39.174Z,6592.00
2018-07-04T08:09:39.107Z,6592.00
2018-07-04T08:10:39.043Z,6528.00
2018-07-04T08:11:38.979Z,6520.00
2018-07-04T08:12:38.918Z,6512.00
2018-07-04T08:13:38.845Z,6516.00
2018-07-04T08:14:38.789Z,6448.00
2018-07-04T08:15:38.715Z,6640.00
2018-07-04T08:16:38.663Z,7020.00
2018-07-04T08:17:38.588Z,7416.00
2018-07-04T08:18:38.519Z,7844.00
2018-07-04T08:19:38.456Z,8296.00
2018-07-04T08:20:38.388Z,8624.00
2018-07-04T08:21:38.327Z,9116.00
2018-07-04T08:22:38.259Z,9508.00
2018-07-04T08:23:38.197Z,9388.00
2018-07-04T08:24:38.132Z,9048.00
2018-07-04T08:25:38.069Z,8680.00
2018-07-04T08:26:38.016Z,8288.00
2018-07-04T08:27:37.936Z,7776.00
2018-07-04T08:28:37.882Z,7392.00
2018-07-04T08:29:37.836Z,7416.00
2018-07-04T08:30:37.743Z,7748.00
2018-07-04T08:31:37.686Z,8100.00
2018-07-04T08:32:37.618Z,8660.00
2018-07-04T08:33:37.553Z,9448.00
2018-07-04T08:34:37.489Z,10320.00
2018-07-04T08:35:37.424Z,10668.00
2018-07-04T08:36:37.363Z,10928.00
2018-07-04T08:37:37.311Z,11124.00
2018-07-04T08:38:37.237Z,11080.00
2018-07-04T08:39:37.173Z,10800.00
2018-07-04T08:40:37.108Z,10864.00
2018-07-04T08:41:37.043Z,10944.00
2018-07-04T08:42:36.987Z,11032.00
2018-07-04T08:43:36.916Z,11180.00
2018-07-04T08:44:36.882Z,10996.00
2018-07-04T08:45:36.788Z,10676.00
2018-07-04T08:46:36.730Z,10688.00
2018-07-04T08:47:36.671Z,10680.00
2018-07-04T08:48:36.601Z,10516.00
2018-07-04T08:49:36.536Z,10468.00
2018-07-04T08:50:36.485Z,10412.00
2018-07-04T08:51:36.408Z,9936.00
2018-07-04T08:52:36.364Z,8956.00
2018-07-04T08:53:36.284Z,7920.00
2018-07-04T08:54:36.231Z,7132.00
2018-07-04T08:55:36.157Z,6244.00
2018-07-04T08:56:36.111Z,6092.00
2018-07-04T08:57:36.030Z,6380.00
2018-07-04T08:58:36.032Z,6820.00
2018-07-04T08:59:35.904Z,7308.00
2018-07-04T09:00:35.843Z,7956.00
2018-07-04T09:01:35.786Z,8260.00
2018-07-04T09:02:35.715Z,8488.00
2018-07-04T09:03:35.653Z,9080.00
2018-07-04T09:04:35.592Z,9564.00
2018-07-04T09:05:35.542Z,9468.00
2018-07-04T09:06:35.464Z,9008.00
2018-07-04T09:07:35.400Z,8604.00
2018-07-04T09:08:35.333Z,7760.00
2018-07-04T09:09:35.277Z,7224.00
2018-07-04T09:10:35.209Z,7296.00
2018-07-04T09:11:36.134Z,6552.00
2018-07-04T09:12:35.089Z,6532.00
2018-07-04T09:13:35.020Z,7216.00
2018-07-04T09:14:34.956Z,8312.00
2018-07-04T09:15:34.897Z,9260.00
2018-07-04T09:16:34.829Z,10120.00
2018-07-04T09:17:34.769Z,33728.00
2018-07-04T09:18:34.704Z,17440.00
2018-07-04T09:19:34.637Z,34144.00
2018-07-04T09:20:34.582Z,38784.00
2018-07-04T09:21:34.540Z,41056.00
2018-07-04T09:22:34.553Z,38624.00
2018-07-04T09:23:34.395Z,31872.00
2018-07-04T09:24:34.357Z,43232.00
2018-07-04T09:25:34.266Z,44992.00
2018-07-04T09:26:34.212Z,45728.00
2018-07-04T09:27:34.149Z,41344.00
2018-07-04T09:28:34.073Z,27008.00
2018-07-04T09:29:34.010Z,21216.00
2018-07-04T09:30:33.953Z,37696.00
2018-07-04T09:31:33.885Z,43872.00
2018-07-04T09:32:33.876Z,15756.00
2018-07-04T09:33:33.775Z,18560.00
2018-07-04T09:34:33.707Z,14512.00
2018-07-04T09:35:33.644Z,11004.00
2018-07-04T09:36:33.584Z,10544.00
2018-07-04T09:37:33.525Z,8364.00
2018-07-04T09:38:33.472Z,6560.00
2018-07-04T09:39:33.417Z,4632.00
2018-07-04T09:40:33.340Z,3828.00
2018-07-04T09:41:33.280Z,3448.00
2018-07-04T09:42:33.226Z,3208.00
2018-07-04T09:43:33.154Z,3040.00
2018-07-04T09:44:33.096Z,2916.00
2018-07-04T09:45:33.037Z,2872.00
2018-07-04T09:46:32.971Z,2872.00
2018-07-04T09:47:32.914Z,2904.00
2018-07-04T09:48:32.850Z,2996.00
2018-07-04T09:49:32.790Z,3104.00
2018-07-04T09:50:32.729Z,3228.00
2018-07-04T09:51:32.663Z,3360.00
2018-07-04T09:52:32.604Z,3488.00
2018-07-04T09:53:32.550Z,3688.00
2018-07-04T09:54:32.499Z,3912.00
2018-07-04T09:55:32.415Z,4108.00
2018-07-04T09:56:32.349Z,4276.00
2018-07-04T09:57:32.283Z,4400.00
2018-07-04T09:58:32.218Z,4572.00
2018-07-04T09:59:32.159Z,4688.00
2018-07-04T10:00:32.092Z,4880.00
2018-07-04T10:01:32.029Z,5204.00
2018-07-04T10:02:31.967Z,5592.00
2018-07-04T10:03:31.898Z,6096.00
2018-07-04T10:04:31.837Z,6604.00
2018-07-04T10:05:31.775Z,7160.00
2018-07-04T10:06:31.708Z,7788.00
2018-07-04T10:07:31.645Z,8468.00
2018-07-04T10:08:31.576Z,9524.00
2018-07-04T10:09:31.522Z,11544.00
2018-07-04T10:10:31.457Z,15592.00
2018-07-04T10:11:31.392Z,23008.00
2018-07-04T10:12:31.332Z,31008.00
2018-07-04T10:13:31.253Z,29216.00
2018-07-04T10:14:31.197Z,34528.00
2018-07-04T10:15:31.124Z,40384.00
2018-07-04T10:16:31.061Z,42464.00
2018-07-04T10:17:30.999Z,41888.00
2018-07-04T10:18:30.941Z,39648.00
2018-07-04T10:19:30.872Z,44352.00
2018-07-04T10:20:30.809Z,45280.00
2018-07-04T10:21:30.744Z,44064.00
2018-07-04T10:22:30.685Z,44320.00
2018-07-04T10:23:30.617Z,39104.00
2018-07-04T10:24:30.646Z,38400.00
2018-07-04T10:25:30.508Z,18176.00
2018-07-04T10:26:30.429Z,27456.00
2018-07-04T10:27:30.935Z,40128.00
2018-07-04T10:28:30.312Z,44256.00
2018-07-04T10:29:30.256Z,46144.00
2018-07-04T10:30:30.188Z,46720.00
2018-07-04T10:31:30.127Z,46624.00
2018-07-04T10:32:30.063Z,44256.00
2018-07-04T10:33:30.004Z,42176.00
2018-07-04T10:34:29.945Z,45568.00
2018-07-04T10:35:29.884Z,45728.00
2018-07-04T10:36:29.824Z,42528.00
2018-07-04T10:37:29.762Z,44800.00
2018-07-04T10:38:29.703Z,43616.00
2018-07-04T10:39:29.646Z,43200.00
2018-07-04T10:40:29.605Z,45408.00
2018-07-04T10:41:29.533Z,48832.00
2018-07-04T10:42:29.473Z,49920.00
2018-07-04T10:43:29.410Z,47808.00
2018-07-04T10:44:29.827Z,34048.00
2018-07-04T10:45:29.301Z,18080.00
2018-07-04T10:46:29.271Z,17344.00
2018-07-04T10:47:29.175Z,31360.00
2018-07-04T10:48:29.115Z,16352.00
2018-07-04T10:49:29.059Z,28640.00
2018-07-04T10:50:29.006Z,38848.00
2018-07-04T10:51:28.940Z,25024.00
2018-07-04T10:52:28.891Z,18688.00
2018-07-04T10:53:28.824Z,18656.00
2018-07-04T10:54:28.766Z,18016.00
2018-07-04T10:55:28.758Z,17856.00
2018-07-04T10:56:28.692Z,18176.00
2018-07-04T10:57:28.590Z,17248.00
2018-07-04T10:58:28.659Z,14784.00
2018-07-04T10:59:28.517Z,12028.00
2018-07-04T11:00:28.425Z,10220.00
2018-07-04T11:01:28.381Z,10436.00
2018-07-04T11:02:28.308Z,8712.00
2018-07-04T11:03:28.269Z,7764.00
2018-07-04T11:04:28.205Z,7824.00
2018-07-04T11:05:28.126Z,8232.00
2018-07-04T11:06:28.062Z,8736.00
2018-07-04T11:07:28.017Z,9088.00
2018-07-04T11:08:27.946Z,9328.00
2018-07-04T11:09:28.123Z,9208.00
2018-07-04T11:10:27.819Z,9020.00
2018-07-04T11:11:27.906Z,9688.00
2018-07-04T11:12:27.693Z,10728.00
2018-07-04T11:13:27.708Z,12008.00
2018-07-04T11:14:27.668Z,12264.00
2018-07-04T11:15:27.567Z,11756.00
2018-07-04T11:16:27.489Z,11712.00
2018-07-04T11:17:31.230Z,12092.00
2018-07-04T11:18:27.379Z,12780.00
2018-07-04T11:19:27.364Z,11484.00
2018-07-04T11:20:27.285Z,12372.00
2018-07-04T11:21:27.145Z,11248.00
2018-07-04T11:22:27.291Z,12160.00
2018-07-04T11:23:27.655Z,12372.00
2018-07-04T11:24:26.958Z,11560.00
2018-07-04T11:25:27.029Z,10712.00
2018-07-04T11:26:27.007Z,13568.00
2018-07-04T11:27:26.844Z,16124.00
2018-07-04T11:28:26.745Z,17536.00
2018-07-04T11:29:29.199Z,25280.00
2018-07-04T11:30:26.588Z,27168.00
2018-07-04T11:31:26.530Z,29632.00
2018-07-04T11:32:26.573Z,28256.00
2018-07-04T11:33:26.411Z,25728.00
2018-07-04T11:34:26.344Z,28928.00
2018-07-04T11:35:26.329Z,27168.00
2018-07-04T11:36:26.294Z,19456.00
2018-07-04T11:37:30.236Z,17088.00
2018-07-04T11:38:26.238Z,15344.00
2018-07-04T11:39:26.089Z,15352.00
2018-07-04T11:40:26.036Z,15148.00
2018-07-04T11:41:25.909Z,14344.00
2018-07-04T11:42:26.029Z,13504.00
2018-07-04T11:43:25.859Z,11568.00
2018-07-04T11:44:25.722Z,10152.00
2018-07-04T11:45:25.659Z,9652.00
2018-07-04T11:46:25.599Z,9716.00
2018-07-04T11:47:25.530Z,9716.00
2018-07-04T11:48:25.521Z,9548.00
2018-07-04T11:49:25.427Z,9412.00
2018-07-04T11:50:25.357Z,9168.00
2018-07-04T11:51:25.340Z,8736.00
2018-07-04T11:52:25.236Z,8312.00
2018-07-04T11:53:25.177Z,7928.00
2018-07-04T11:54:25.108Z,7644.00
2018-07-04T11:55:25.059Z,7316.00
2018-07-04T11:56:25.062Z,6952.00
2018-07-04T11:57:24.917Z,6608.00
2018-07-04T11:58:24.863Z,6364.00
2018-07-04T11:59:24.789Z,6076.00
2018-07-04T12:00:24.728Z,5900.00
2018-07-04T12:01:24.674Z,5748.00
2018-07-04T12:02:25.366Z,5568.00
2018-07-04T12:03:24.542Z,5332.00
2018-07-04T12:04:24.481Z,5148.00
2018-07-04T12:05:24.458Z,4980.00
2018-07-04T12:06:24.360Z,4780.00
2018-07-04T12:07:24.291Z,4604.00
2018-07-04T12:08:24.223Z,4364.00
2018-07-04T12:09:24.175Z,4208.00
2018-07-04T12:10:24.103Z,4052.00
2018-07-04T12:11:24.037Z,3984.00
2018-07-04T12:12:23.984Z,3820.00
2018-07-04T12:13:24.616Z,3636.00
2018-07-04T12:14:23.855Z,3456.00
2018-07-04T12:15:23.796Z,3388.00
2018-07-04T12:16:23.726Z,3352.00
2018-07-04T12:17:23.664Z,3260.00
2018-07-04T12:18:23.598Z,3124.00
2018-07-04T12:19:23.533Z,2964.00
2018-07-04T12:20:23.473Z,2828.00
2018-07-04T12:21:23.402Z,2676.00